Terminal Aerodrome Forecast
Issued by NWS

Home | Current Version | Previous Version | Text Only | Print | Product List | Glossary On
Versions: 1 2 3 4 5 6 7 8 9 10 11 12 13 14 15 16 17 18
000
FTUS46 KPDT 242300
TAFRDM
TAF
KRDM 242331Z 2500/2524 15010KT P6SM VCSH SCT030 BKN050
     FM250300 18004KT P6SM -RA SCT030 OVC050
     FM251200 18004KT 5SM -RA BR BKN025 OVC035
     FM251800 20008KT P6SM VCSH SCT025 BKN040 OVC080=

USA.gov is the U.S. government's official web portal to all federal, state and local government web resources and services.